PWSweather.com
Personal Weather Stations
Station Observations

YeovilGB

Lat: 50.949, Lon: -2.627

Elevation: 70

Station Type: Vantage Pro

http://www.yeovil-weather.me.uk/

High Low Average
Temperature 75.8°F24.3°C 50.3°F10.2°C 63.7°F17.6°C
Dew Point 61.6°F16.4°C 49.0°F9.4°C 56.0°F13.3°C
Winds 8.1 mph 13.0 kmh Calm Calm 2.0 mph S3.2 kmh S
Wind Gusts 16.1 mph25.9 kmh -- 4.0 mph6.4 kmh
Humidity 97% 54% 78%
Pressure 30.18 in1022.0 mb 30.05 in1017.6 mb -
Precipitation 0.00 in0.0 mm - -
Hour Temp Dew Point Humidity Winds Wind Gusts Pressure Precip Precip Rate Daily Precip Total
12:00 AM 54.8°F12.7°C 53.1°F11.7°C 94% Calm Calm 3.5 mph5.6 kmh 30.18 in1022.0 mb - 0.00 in0.0 mm 0.00 in0.0 mm
12:10 AM 54.9°F12.7°C 53.2°F11.8°C 94% Calm Calm 2.3 mph3.7 kmh 30.18 in1022.0 mb - 0.00 in0.0 mm 0.00 in0.0 mm
12:20 AM 55.1°F12.8°C 53.7°F12.1°C 95% Calm Calm -- 30.18 in1022.0 mb - 0.00 in0.0 mm 0.00 in0.0 mm
12:30 AM 55.2°F12.9°C 53.8°F12.1°C 95% Calm Calm -- 30.18 in1022.0 mb - 0.00 in0.0 mm 0.00 in0.0 mm
12:40 AM 55.1°F12.8°C 53.7°F12.1°C 95% Calm Calm -- 30.18 in1022.0 mb - 0.00 in0.0 mm 0.00 in0.0 mm
12:50 AM 54.9°F12.7°C 53.5°F11.9°C 95% Calm Calm -- 30.18 in1022.0 mb - 0.00 in0.0 mm 0.00 in0.0 mm
01:00 AM 54.7°F12.6°C 53.3°F11.8°C 95% Calm Calm -- 30.18 in1022.0 mb - 0.00 in0.0 mm 0.00 in0.0 mm
01:10 AM 54.5°F12.5°C 52.8°F11.6°C 94% Calm Calm -- 30.18 in1022.0 mb - 0.00 in0.0 mm 0.00 in0.0 mm
01:20 AM 54.2°F12.3°C 52.5°F11.4°C 94% Calm Calm -- 30.18 in1022.0 mb - 0.00 in0.0 mm 0.00 in0.0 mm
01:30 AM 53.9°F12.2°C 52.2°F11.2°C 94% Calm Calm -- 30.18 in1022.0 mb - 0.00 in0.0 mm 0.00 in0.0 mm
01:40 AM 53.7°F12.1°C 52.3°F11.3°C 95% Calm Calm -- 30.17 in1021.7 mb - 0.00 in0.0 mm 0.00 in0.0 mm
01:50 AM 53.5°F11.9°C 52.1°F11.2°C 95% Calm Calm -- 30.17 in1021.7 mb - 0.00 in0.0 mm 0.00 in0.0 mm
02:00 AM 53.3°F11.8°C 51.9°F11.1°C 95% Calm Calm -- 30.17 in1021.7 mb - 0.00 in0.0 mm 0.00 in0.0 mm
02:10 AM 53.2°F11.8°C 51.8°F11.0°C 95% Calm Calm -- 30.16 in1021.3 mb - 0.00 in0.0 mm 0.00 in0.0 mm
02:20 AM 53.1°F11.7°C 51.7°F10.9°C 95% Calm Calm -- 30.16 in1021.3 mb - 0.00 in0.0 mm 0.00 in0.0 mm
02:30 AM 52.9°F11.6°C 51.5°F10.8°C 95% Calm Calm -- 30.16 in1021.3 mb - 0.00 in0.0 mm 0.00 in0.0 mm
02:40 AM 52.7°F11.5°C 51.3°F10.7°C 95% Calm Calm -- 30.16 in1021.3 mb - 0.00 in0.0 mm 0.00 in0.0 mm
02:50 AM 52.3°F11.3°C 50.9°F10.5°C 95% Calm Calm -- 30.16 in1021.3 mb - 0.00 in0.0 mm 0.00 in0.0 mm
03:00 AM 52.0°F11.1°C 50.6°F10.3°C 95% Calm Calm -- 30.16 in1021.3 mb - 0.00 in0.0 mm 0.00 in0.0 mm
03:10 AM 51.8°F11.0°C 50.4°F10.2°C 95% Calm Calm -- 30.16 in1021.3 mb - 0.00 in0.0 mm 0.00 in0.0 mm
03:20 AM 51.5°F10.8°C 50.1°F10.1°C 95% Calm Calm -- 30.17 in1021.7 mb - 0.00 in0.0 mm 0.00 in0.0 mm
03:30 AM 51.4°F10.8°C 50.0°F10.0°C 95% Calm Calm -- 30.17 in1021.7 mb - 0.00 in0.0 mm 0.00 in0.0 mm
03:40 AM 51.0°F10.6°C 49.7°F9.8°C 95% Calm Calm -- 30.16 in1021.3 mb - 0.00 in0.0 mm 0.00 in0.0 mm
03:50 AM 50.8°F10.4°C 49.4°F9.7°C 95% Calm Calm -- 30.16 in1021.3 mb - 0.00 in0.0 mm 0.00 in0.0 mm
04:00 AM 50.5°F10.3°C 49.2°F9.6°C 95% Calm Calm -- 30.16 in1021.3 mb - 0.00 in0.0 mm 0.00 in0.0 mm
04:10 AM 50.4°F10.2°C 49.0°F9.4°C 95% Calm Calm -- 30.17 in1021.7 mb - 0.00 in0.0 mm 0.00 in0.0 mm
04:20 AM 50.3°F10.2°C 49.2°F9.6°C 96% Calm Calm -- 30.17 in1021.7 mb - 0.00 in0.0 mm 0.00 in0.0 mm
04:30 AM 50.4°F10.2°C 49.3°F9.6°C 96% Calm Calm -- 30.17 in1021.7 mb - 0.00 in0.0 mm 0.00 in0.0 mm
04:40 AM 50.4°F10.2°C 49.3°F9.6°C 96% Calm Calm -- 30.17 in1021.7 mb - 0.00 in0.0 mm 0.00 in0.0 mm
04:50 AM 50.6°F10.3°C 49.5°F9.7°C 96% Calm Calm -- 30.17 in1021.7 mb - 0.00 in0.0 mm 0.00 in0.0 mm
05:00 AM 50.9°F10.5°C 49.8°F9.9°C 96% Calm Calm -- 30.17 in1021.7 mb - 0.00 in0.0 mm 0.00 in0.0 mm
05:10 AM 51.1°F10.6°C 50.0°F10.0°C 96% Calm Calm -- 30.17 in1021.7 mb - 0.00 in0.0 mm 0.00 in0.0 mm
05:20 AM 51.3°F10.7°C 50.2°F10.1°C 96% Calm Calm -- 30.17 in1021.7 mb - 0.00 in0.0 mm 0.00 in0.0 mm
05:30 AM 51.5°F10.8°C 50.4°F10.2°C 96% Calm Calm -- 30.17 in1021.7 mb - 0.00 in0.0 mm 0.00 in0.0 mm
05:40 AM 51.9°F11.1°C 51.1°F10.6°C 97% Calm Calm -- 30.17 in1021.7 mb - 0.00 in0.0 mm 0.00 in0.0 mm
05:50 AM 52.3°F11.3°C 51.5°F10.8°C 97% Calm Calm -- 30.17 in1021.7 mb - 0.00 in0.0 mm 0.00 in0.0 mm
06:00 AM 52.8°F11.6°C 52.0°F11.1°C 97% Calm Calm -- 30.17 in1021.7 mb - 0.00 in0.0 mm 0.00 in0.0 mm
06:10 AM 53.4°F11.9°C 52.6°F11.4°C 97% Calm Calm -- 30.17 in1021.7 mb - 0.00 in0.0 mm 0.00 in0.0 mm
06:20 AM 54.0°F12.2°C 53.1°F11.7°C 97% Calm Calm -- 30.17 in1021.7 mb - 0.00 in0.0 mm 0.00 in0.0 mm
06:30 AM 54.6°F12.6°C 53.8°F12.1°C 97% Calm Calm -- 30.17 in1021.7 mb - 0.00 in0.0 mm 0.00 in0.0 mm
06:40 AM 55.0°F12.8°C 54.2°F12.3°C 97% Calm Calm -- 30.17 in1021.7 mb - 0.00 in0.0 mm 0.00 in0.0 mm
06:50 AM 55.4°F13.0°C 54.3°F12.4°C 96% Calm Calm -- 30.17 in1021.7 mb - 0.00 in0.0 mm 0.00 in0.0 mm
07:00 AM 55.9°F13.3°C 54.7°F12.6°C 96% Calm Calm -- 30.17 in1021.7 mb - 0.00 in0.0 mm 0.00 in0.0 mm
07:10 AM 56.4°F13.6°C 55.3°F12.9°C 96% Calm Calm -- 30.17 in1021.7 mb - 0.00 in0.0 mm 0.00 in0.0 mm
07:20 AM 56.9°F13.8°C 55.5°F13.1°C 95% Calm Calm -- 30.17 in1021.7 mb - 0.00 in0.0 mm 0.00 in0.0 mm
07:30 AM 57.5°F14.2°C 55.8°F13.2°C 94% 1.2 mph SE1.9 kmh SE 3.5 mph5.6 kmh 30.16 in1021.3 mb - 0.00 in0.0 mm 0.00 in0.0 mm
07:40 AM 58.5°F14.7°C 56.8°F13.8°C 94% 2.3 mph SSE3.7 kmh SSE 5.8 mph9.3 kmh 30.16 in1021.3 mb - 0.00 in0.0 mm 0.00 in0.0 mm
07:50 AM 60.0°F15.6°C 57.4°F14.1°C 91% 2.3 mph SE3.7 kmh SE 5.8 mph9.3 kmh 30.16 in1021.3 mb - 0.00 in0.0 mm 0.00 in0.0 mm
08:00 AM 61.5°F16.4°C 57.9°F14.4°C 88% 3.5 mph SSE5.6 kmh SSE 4.6 mph7.4 kmh 30.16 in1021.3 mb - 0.00 in0.0 mm 0.00 in0.0 mm
08:10 AM 63.0°F17.2°C 58.1°F14.5°C 84% 1.2 mph SSE1.9 kmh SSE 5.8 mph9.3 kmh 30.16 in1021.3 mb - 0.00 in0.0 mm 0.00 in0.0 mm
08:20 AM 64.4°F18.0°C 58.8°F14.9°C 82% 1.2 mph SE1.9 kmh SE 4.6 mph7.4 kmh 30.16 in1021.3 mb - 0.00 in0.0 mm 0.00 in0.0 mm
08:30 AM 65.6°F18.7°C 58.6°F14.8°C 78% 4.6 mph SE7.4 kmh SE 8.1 mph13.0 kmh 30.16 in1021.3 mb - 0.00 in0.0 mm 0.00 in0.0 mm
08:40 AM 66.5°F19.2°C 58.3°F14.6°C 75% 3.5 mph ESE5.6 kmh ESE 8.1 mph13.0 kmh 30.15 in1021.0 mb - 0.00 in0.0 mm 0.00 in0.0 mm
08:50 AM 67.5°F19.7°C 58.6°F14.8°C 73% 3.5 mph SSE5.6 kmh SSE 8.1 mph13.0 kmh 30.15 in1021.0 mb - 0.00 in0.0 mm 0.00 in0.0 mm
09:00 AM 68.4°F20.2°C 58.6°F14.8°C 71% 4.6 mph SE7.4 kmh SE 6.9 mph11.1 kmh 30.16 in1021.3 mb - 0.00 in0.0 mm 0.00 in0.0 mm
09:10 AM 69.0°F20.6°C 58.8°F14.9°C 70% 4.6 mph SSE7.4 kmh SSE 12.7 mph20.4 kmh 30.15 in1021.0 mb - 0.00 in0.0 mm 0.00 in0.0 mm
09:20 AM 69.3°F20.7°C 57.9°F14.4°C 67% 2.3 mph SSE3.7 kmh SSE 6.9 mph11.1 kmh 30.15 in1021.0 mb - 0.00 in0.0 mm 0.00 in0.0 mm
09:30 AM 69.8°F21.0°C 57.9°F14.4°C 66% 4.6 mph SE7.4 kmh SE 10.4 mph16.7 kmh 30.15 in1021.0 mb - 0.00 in0.0 mm 0.00 in0.0 mm
09:40 AM 69.8°F21.0°C 58.7°F14.8°C 68% 1.2 mph S1.9 kmh S 6.9 mph11.1 kmh 30.15 in1021.0 mb - 0.00 in0.0 mm 0.00 in0.0 mm
09:50 AM 70.1°F21.2°C 57.8°F14.3°C 65% 2.3 mph SE3.7 kmh SE 6.9 mph11.1 kmh 30.15 in1021.0 mb - 0.00 in0.0 mm 0.00 in0.0 mm
10:00 AM 70.5°F21.4°C 58.6°F14.8°C 66% 3.5 mph SSE5.6 kmh SSE 11.5 mph18.5 kmh 30.15 in1021.0 mb - 0.00 in0.0 mm 0.00 in0.0 mm
10:10 AM 71.0°F21.7°C 59.5°F15.3°C 67% 2.3 mph SE3.7 kmh SE 9.2 mph14.8 kmh 30.14 in1020.7 mb - 0.00 in0.0 mm 0.00 in0.0 mm
10:20 AM 71.3°F21.8°C 59.8°F15.4°C 67% 5.8 mph S9.3 kmh S 8.1 mph13.0 kmh 30.15 in1021.0 mb - 0.00 in0.0 mm 0.00 in0.0 mm
10:30 AM 71.6°F22.0°C 58.8°F14.9°C 64% 2.3 mph SE3.7 kmh SE 6.9 mph11.1 kmh 30.14 in1020.7 mb - 0.00 in0.0 mm 0.00 in0.0 mm
10:40 AM 71.7°F22.1°C 57.1°F13.9°C 60% 6.9 mph SE11.1 kmh SE 10.4 mph16.7 kmh 30.14 in1020.7 mb - 0.00 in0.0 mm 0.00 in0.0 mm
10:50 AM 72.2°F22.3°C 57.1°F13.9°C 59% 2.3 mph ESE3.7 kmh ESE 3.5 mph5.6 kmh 30.14 in1020.7 mb - 0.00 in0.0 mm 0.00 in0.0 mm
11:00 AM 72.8°F22.7°C 57.1°F13.9°C 58% 4.6 mph SE7.4 kmh SE 6.9 mph11.1 kmh 30.14 in1020.7 mb - 0.00 in0.0 mm 0.00 in0.0 mm
11:10 AM 72.6°F22.6°C 55.0°F12.8°C 54% 4.6 mph SSE7.4 kmh SSE 8.1 mph13.0 kmh 30.14 in1020.7 mb - 0.00 in0.0 mm 0.00 in0.0 mm
11:20 AM 72.8°F22.7°C 56.2°F13.4°C 56% 3.5 mph SSW5.6 kmh SSW 9.2 mph14.8 kmh 30.14 in1020.7 mb - 0.00 in0.0 mm 0.00 in0.0 mm
11:30 AM 73.4°F23.0°C 55.7°F13.2°C 54% 4.6 mph S7.4 kmh S 8.1 mph13.0 kmh 30.13 in1020.3 mb - 0.00 in0.0 mm 0.00 in0.0 mm
11:40 AM 73.6°F23.1°C 56.9°F13.8°C 56% 5.8 mph SSE9.3 kmh SSE 6.9 mph11.1 kmh 30.13 in1020.3 mb - 0.00 in0.0 mm 0.00 in0.0 mm
11:50 AM 73.7°F23.2°C 56.5°F13.6°C 55% 2.3 mph S3.7 kmh S 11.5 mph18.5 kmh 30.13 in1020.3 mb - 0.00 in0.0 mm 0.00 in0.0 mm
12:00 PM 73.7°F23.2°C 56.0°F13.3°C 54% 5.8 mph S9.3 kmh S 9.2 mph14.8 kmh 30.13 in1020.3 mb - 0.00 in0.0 mm 0.00 in0.0 mm
12:10 PM 73.7°F23.2°C 56.5°F13.6°C 55% 1.2 mph SSE1.9 kmh SSE 3.5 mph5.6 kmh 30.13 in1020.3 mb - 0.00 in0.0 mm 0.00 in0.0 mm
12:20 PM 73.8°F23.2°C 57.6°F14.2°C 57% 4.6 mph S7.4 kmh S 11.5 mph18.5 kmh 30.12 in1020.0 mb - 0.00 in0.0 mm 0.00 in0.0 mm
12:30 PM 74.2°F23.4°C 58.9°F14.9°C 59% 4.6 mph SSW7.4 kmh SSW 10.4 mph16.7 kmh 30.12 in1020.0 mb - 0.00 in0.0 mm 0.00 in0.0 mm
12:40 PM 74.5°F23.6°C 58.7°F14.8°C 58% 1.2 mph S1.9 kmh S 4.6 mph7.4 kmh 30.12 in1020.0 mb - 0.00 in0.0 mm 0.00 in0.0 mm
12:50 PM 75.2°F24.0°C 59.4°F15.2°C 58% 3.5 mph S5.6 kmh S 8.1 mph13.0 kmh 30.12 in1020.0 mb - 0.00 in0.0 mm 0.00 in0.0 mm
01:00 PM 75.6°F24.2°C 59.3°F15.2°C 57% 2.3 mph S3.7 kmh S 11.5 mph18.5 kmh 30.12 in1020.0 mb - 0.00 in0.0 mm 0.00 in0.0 mm
01:10 PM 75.5°F24.2°C 59.2°F15.1°C 57% 5.8 mph SSW9.3 kmh SSW 12.7 mph20.4 kmh 30.12 in1020.0 mb - 0.00 in0.0 mm 0.00 in0.0 mm
01:20 PM 75.3°F24.1°C 60.0°F15.6°C 59% 3.5 mph S5.6 kmh S 8.1 mph13.0 kmh 30.11 in1019.6 mb - 0.00 in0.0 mm 0.00 in0.0 mm
01:30 PM 75.4°F24.1°C 60.1°F15.6°C 59% 5.8 mph SE9.3 kmh SE 11.5 mph18.5 kmh 30.11 in1019.6 mb - 0.00 in0.0 mm 0.00 in0.0 mm
01:40 PM 75.4°F24.1°C 60.5°F15.8°C 60% 4.6 mph S7.4 kmh S 11.5 mph18.5 kmh 30.11 in1019.6 mb - 0.00 in0.0 mm 0.00 in0.0 mm
01:50 PM 75.1°F23.9°C 60.3°F15.7°C 60% 2.3 mph SE3.7 kmh SE 5.8 mph9.3 kmh 30.11 in1019.6 mb - 0.00 in0.0 mm 0.00 in0.0 mm
02:00 PM 75.5°F24.2°C 61.1°F16.2°C 61% 4.6 mph SSW7.4 kmh SSW 11.5 mph18.5 kmh 30.11 in1019.6 mb - 0.00 in0.0 mm 0.00 in0.0 mm
02:10 PM 75.7°F24.3°C 60.4°F15.8°C 59% 5.8 mph S9.3 kmh S 8.1 mph13.0 kmh 30.10 in1019.3 mb - 0.00 in0.0 mm 0.00 in0.0 mm
02:20 PM 75.5°F24.2°C 61.1°F16.2°C 61% 2.3 mph S3.7 kmh S 5.8 mph9.3 kmh 30.10 in1019.3 mb - 0.00 in0.0 mm 0.00 in0.0 mm
02:30 PM 75.8°F24.3°C 60.9°F16.1°C 60% 5.8 mph SE9.3 kmh SE 10.4 mph16.7 kmh 30.10 in1019.3 mb - 0.00 in0.0 mm 0.00 in0.0 mm
02:40 PM 75.1°F23.9°C 60.7°F15.9°C 61% 5.8 mph S9.3 kmh S 9.2 mph14.8 kmh 30.09 in1019.0 mb - 0.00 in0.0 mm 0.00 in0.0 mm
02:50 PM 74.5°F23.6°C 60.6°F15.9°C 62% 8.1 mph S13.0 kmh S 13.8 mph22.2 kmh 30.09 in1019.0 mb - 0.00 in0.0 mm 0.00 in0.0 mm
03:00 PM 75.1°F23.9°C 61.6°F16.4°C 63% 6.9 mph SW11.1 kmh SW 16.1 mph25.9 kmh 30.09 in1019.0 mb - 0.00 in0.0 mm 0.00 in0.0 mm
03:10 PM 75.3°F24.1°C 61.4°F16.3°C 62% 3.5 mph S5.6 kmh S 11.5 mph18.5 kmh 30.09 in1019.0 mb - 0.00 in0.0 mm 0.00 in0.0 mm
03:20 PM 75.0°F23.9°C 60.6°F15.9°C 61% 8.1 mph S13.0 kmh S 16.1 mph25.9 kmh 30.09 in1019.0 mb - 0.00 in0.0 mm 0.00 in0.0 mm
03:30 PM 74.9°F23.8°C 60.0°F15.6°C 60% 3.5 mph S5.6 kmh S 9.2 mph14.8 kmh 30.09 in1019.0 mb - 0.00 in0.0 mm 0.00 in0.0 mm
03:40 PM 74.7°F23.7°C 60.4°F15.8°C 61% 2.3 mph S3.7 kmh S 3.5 mph5.6 kmh 30.09 in1019.0 mb - 0.00 in0.0 mm 0.00 in0.0 mm
03:50 PM 74.5°F23.6°C 59.7°F15.4°C 60% 5.8 mph SSW9.3 kmh SSW 10.4 mph16.7 kmh 30.09 in1019.0 mb - 0.00 in0.0 mm 0.00 in0.0 mm
04:00 PM 74.0°F23.3°C 58.7°F14.8°C 59% 5.8 mph SSW9.3 kmh SSW 9.2 mph14.8 kmh 30.09 in1019.0 mb - 0.00 in0.0 mm 0.00 in0.0 mm
04:10 PM 73.3°F22.9°C 59.0°F15.0°C 61% 4.6 mph S7.4 kmh S 10.4 mph16.7 kmh 30.09 in1019.0 mb - 0.00 in0.0 mm 0.00 in0.0 mm
04:20 PM 73.0°F22.8°C 58.8°F14.9°C 61% 3.5 mph S5.6 kmh S 13.8 mph22.2 kmh 30.09 in1019.0 mb - 0.00 in0.0 mm 0.00 in0.0 mm
04:30 PM 72.6°F22.6°C 58.9°F14.9°C 62% 6.9 mph S11.1 kmh S 11.5 mph18.5 kmh 30.09 in1019.0 mb - 0.00 in0.0 mm 0.00 in0.0 mm
04:40 PM 72.2°F22.3°C 58.9°F14.9°C 63% 4.6 mph S7.4 kmh S 8.1 mph13.0 kmh 30.08 in1018.6 mb - 0.00 in0.0 mm 0.00 in0.0 mm
04:50 PM 72.0°F22.2°C 59.2°F15.1°C 64% 4.6 mph S7.4 kmh S 6.9 mph11.1 kmh 30.08 in1018.6 mb - 0.00 in0.0 mm 0.00 in0.0 mm
05:00 PM 71.7°F22.1°C 58.9°F14.9°C 64% 2.3 mph S3.7 kmh S 3.5 mph5.6 kmh 30.08 in1018.6 mb - 0.00 in0.0 mm 0.00 in0.0 mm
05:10 PM 71.5°F21.9°C 58.7°F14.8°C 64% 3.5 mph SSE5.6 kmh SSE 10.4 mph16.7 kmh 30.08 in1018.6 mb - 0.00 in0.0 mm 0.00 in0.0 mm
05:20 PM 71.3°F21.8°C 58.9°F14.9°C 65% 1.2 mph S1.9 kmh S 4.6 mph7.4 kmh 30.07 in1018.3 mb - 0.00 in0.0 mm 0.00 in0.0 mm
05:30 PM 71.0°F21.7°C 59.1°F15.1°C 66% 2.3 mph S3.7 kmh S 11.5 mph18.5 kmh 30.07 in1018.3 mb - 0.00 in0.0 mm 0.00 in0.0 mm
05:40 PM 70.7°F21.5°C 59.2°F15.1°C 67% 1.2 mph SSE1.9 kmh SSE 4.6 mph7.4 kmh 30.07 in1018.3 mb - 0.00 in0.0 mm 0.00 in0.0 mm
05:50 PM 70.6°F21.4°C 58.7°F14.8°C 66% 4.6 mph SSE7.4 kmh SSE 8.1 mph13.0 kmh 30.07 in1018.3 mb - 0.00 in0.0 mm 0.00 in0.0 mm
06:00 PM 70.4°F21.3°C 58.9°F14.9°C 67% 3.5 mph S5.6 kmh S 5.8 mph9.3 kmh 30.07 in1018.3 mb - 0.00 in0.0 mm 0.00 in0.0 mm
06:10 PM 70.2°F21.2°C 59.1°F15.1°C 68% 2.3 mph S3.7 kmh S 5.8 mph9.3 kmh 30.07 in1018.3 mb - 0.00 in0.0 mm 0.00 in0.0 mm
06:20 PM 69.9°F21.1°C 58.8°F14.9°C 68% 4.6 mph SSW7.4 kmh SSW 6.9 mph11.1 kmh 30.07 in1018.3 mb - 0.00 in0.0 mm 0.00 in0.0 mm
06:30 PM 69.4°F20.8°C 58.8°F14.9°C 69% 2.3 mph SSW3.7 kmh SSW 4.6 mph7.4 kmh 30.07 in1018.3 mb - 0.00 in0.0 mm 0.00 in0.0 mm
06:40 PM 68.9°F20.5°C 58.7°F14.8°C 70% 2.3 mph SSW3.7 kmh SSW 4.6 mph7.4 kmh 30.07 in1018.3 mb - 0.00 in0.0 mm 0.00 in0.0 mm
06:50 PM 68.3°F20.2°C 58.5°F14.7°C 71% 3.5 mph S5.6 kmh S 8.1 mph13.0 kmh 30.07 in1018.3 mb - 0.00 in0.0 mm 0.00 in0.0 mm
07:00 PM 67.6°F19.8°C 58.2°F14.6°C 72% 4.6 mph S7.4 kmh S 6.9 mph11.1 kmh 30.07 in1018.3 mb - 0.00 in0.0 mm 0.00 in0.0 mm
07:10 PM 67.1°F19.5°C 58.5°F14.7°C 74% 1.2 mph S1.9 kmh S 8.1 mph13.0 kmh 30.07 in1018.3 mb - 0.00 in0.0 mm 0.00 in0.0 mm
07:30 PM 66.2°F19.0°C 58.1°F14.5°C 75% Calm Calm 2.3 mph3.7 kmh 30.07 in1018.3 mb - 0.00 in0.0 mm 0.00 in0.0 mm
07:40 PM 65.8°F18.8°C 58.0°F14.4°C 76% 1.2 mph S1.9 kmh S 4.6 mph7.4 kmh 30.07 in1018.3 mb - 0.00 in0.0 mm 0.00 in0.0 mm
07:50 PM 65.3°F18.5°C 57.9°F14.4°C 77% 1.2 mph S1.9 kmh S 5.8 mph9.3 kmh 30.07 in1018.3 mb - 0.00 in0.0 mm 0.00 in0.0 mm
08:00 PM 64.8°F18.2°C 57.4°F14.1°C 77% 1.2 mph S1.9 kmh S 6.9 mph11.1 kmh 30.07 in1018.3 mb - 0.00 in0.0 mm 0.00 in0.0 mm
08:30 PM 63.3°F17.4°C 57.4°F14.1°C 81% Calm Calm 1.2 mph1.9 kmh 30.07 in1018.3 mb - 0.00 in0.0 mm 0.00 in0.0 mm
08:40 PM 62.9°F17.2°C 57.0°F13.9°C 81% Calm Calm 1.2 mph1.9 kmh 30.07 in1018.3 mb - 0.00 in0.0 mm 0.00 in0.0 mm
08:50 PM 62.5°F16.9°C 56.9°F13.8°C 82% Calm Calm -- 30.07 in1018.3 mb - 0.00 in0.0 mm 0.00 in0.0 mm
09:00 PM 62.1°F16.7°C 56.9°F13.8°C 83% Calm Calm -- 30.07 in1018.3 mb - 0.00 in0.0 mm 0.00 in0.0 mm
09:10 PM 61.7°F16.5°C 56.5°F13.6°C 83% Calm Calm 1.2 mph1.9 kmh 30.08 in1018.6 mb - 0.00 in0.0 mm 0.00 in0.0 mm
09:20 PM 61.3°F16.3°C 56.4°F13.6°C 84% Calm Calm -- 30.08 in1018.6 mb - 0.00 in0.0 mm 0.00 in0.0 mm
09:30 PM 60.9°F16.1°C 56.0°F13.3°C 84% Calm Calm -- 30.08 in1018.6 mb - 0.00 in0.0 mm 0.00 in0.0 mm
09:40 PM 60.6°F15.9°C 55.7°F13.2°C 84% Calm Calm -- 30.08 in1018.6 mb - 0.00 in0.0 mm 0.00 in0.0 mm
09:50 PM 60.4°F15.8°C 55.9°F13.3°C 85% Calm Calm -- 30.08 in1018.6 mb - 0.00 in0.0 mm 0.00 in0.0 mm
10:00 PM 60.0°F15.6°C 55.5°F13.1°C 85% Calm Calm -- 30.07 in1018.3 mb - 0.00 in0.0 mm 0.00 in0.0 mm
10:10 PM 59.8°F15.4°C 55.6°F13.1°C 86% Calm Calm -- 30.07 in1018.3 mb - 0.00 in0.0 mm 0.00 in0.0 mm
10:20 PM 59.5°F15.3°C 55.3°F12.9°C 86% Calm Calm -- 30.07 in1018.3 mb - 0.00 in0.0 mm 0.00 in0.0 mm
10:30 PM 59.3°F15.2°C 55.4°F13.0°C 87% Calm Calm -- 30.07 in1018.3 mb - 0.00 in0.0 mm 0.00 in0.0 mm
10:40 PM 59.1°F15.1°C 55.2°F12.9°C 87% Calm Calm -- 30.07 in1018.3 mb - 0.00 in0.0 mm 0.00 in0.0 mm
10:50 PM 58.9°F14.9°C 55.0°F12.8°C 87% Calm Calm -- 30.07 in1018.3 mb - 0.00 in0.0 mm 0.00 in0.0 mm
11:00 PM 58.8°F14.9°C 55.2°F12.9°C 88% Calm Calm -- 30.07 in1018.3 mb - 0.00 in0.0 mm 0.00 in0.0 mm
11:10 PM 58.7°F14.8°C 55.1°F12.8°C 88% Calm Calm -- 30.07 in1018.3 mb - 0.00 in0.0 mm 0.00 in0.0 mm
11:20 PM 58.6°F14.8°C 55.0°F12.8°C 88% Calm Calm -- 30.07 in1018.3 mb - 0.00 in0.0 mm 0.00 in0.0 mm
11:30 PM 58.4°F14.7°C 55.2°F12.9°C 89% Calm Calm -- 30.06 in1017.9 mb - 0.00 in0.0 mm 0.00 in0.0 mm
11:40 PM 58.4°F14.7°C 55.2°F12.9°C 89% Calm Calm -- 30.06 in1017.9 mb - 0.00 in0.0 mm 0.00 in0.0 mm
11:50 PM 58.3°F14.6°C 55.1°F12.8°C 89% Calm Calm -- 30.05 in1017.6 mb - 0.00 in0.0 mm 0.00 in0.0 mm